sensor_id;sensor_type;location;lat;lon;timestamp;temperature;humidity
1079;DHT22;528;47.872;11.478;2022-07-29T04:11:53;18.60;99.90
1079;DHT22;528;47.872;11.478;2022-07-29T06:40:28;20.60;99.90
1079;DHT22;528;47.872;11.478;2022-07-29T06:44:01;20.70;99.90
1079;DHT22;528;47.872;11.478;2022-07-29T06:46:24;20.80;99.90
1079;DHT22;528;47.872;11.478;2022-07-29T06:48:53;21.00;99.90
1079;DHT22;528;47.872;11.478;2022-07-29T06:51:25;21.00;99.90
1079;DHT22;528;47.872;11.478;2022-07-29T07:33:38;23.30;99.90
1079;DHT22;528;47.872;11.478;2022-07-29T07:36:07;23.40;99.90
1079;DHT22;528;47.872;11.478;2022-07-29T07:38:50;23.40;99.90
1079;DHT22;528;47.872;11.478;2022-07-29T08:07:47;24.60;99.90
1079;DHT22;528;47.872;11.478;2022-07-29T08:10:18;24.70;99.90
1079;DHT22;528;47.872;11.478;2022-07-29T08:13:02;24.80;99.90
1079;DHT22;528;47.872;11.478;2022-07-29T08:15:29;24.80;98.60
1079;DHT22;528;47.872;11.478;2022-07-29T08:18:04;24.90;96.70
1079;DHT22;528;47.872;11.478;2022-07-29T08:20:34;24.90;96.80
1079;DHT22;528;47.872;11.478;2022-07-29T08:23:07;24.90;97.00
1079;DHT22;528;47.872;11.478;2022-07-29T08:25:51;25.00;97.30
1079;DHT22;528;47.872;11.478;2022-07-29T08:28:19;25.10;97.80
1079;DHT22;528;47.872;11.478;2022-07-29T08:30:48;25.10;98.10
1079;DHT22;528;47.872;11.478;2022-07-29T08:33:16;25.20;98.30
1079;DHT22;528;47.872;11.478;2022-07-29T08:35:44;25.30;98.00
1079;DHT22;528;47.872;11.478;2022-07-29T08:38:13;25.30;98.70
1079;DHT22;528;47.872;11.478;2022-07-29T08:40:41;25.40;99.20
1079;DHT22;528;47.872;11.478;2022-07-29T08:43:09;25.50;96.50
1079;DHT22;528;47.872;11.478;2022-07-29T08:45:42;25.50;95.60
1079;DHT22;528;47.872;11.478;2022-07-29T08:48:11;25.60;96.70
1079;DHT22;528;47.872;11.478;2022-07-29T08:50:40;25.60;96.40
1079;DHT22;528;47.872;11.478;2022-07-29T08:53:12;25.70;97.10
1079;DHT22;528;47.872;11.478;2022-07-29T08:55:41;25.60;95.80
1079;DHT22;528;47.872;11.478;2022-07-29T08:58:11;25.60;96.50
1079;DHT22;528;47.872;11.478;2022-07-29T09:00:42;25.70;97.80
1079;DHT22;528;47.872;11.478;2022-07-29T09:03:14;25.70;96.30
1079;DHT22;528;47.872;11.478;2022-07-29T09:05:42;25.60;95.10
1079;DHT22;528;47.872;11.478;2022-07-29T09:08:11;25.50;95.20
1079;DHT22;528;47.872;11.478;2022-07-29T09:10:39;25.50;96.30
1079;DHT22;528;47.872;11.478;2022-07-29T09:13:07;25.50;95.60
1079;DHT22;528;47.872;11.478;2022-07-29T09:15:34;25.50;95.70
1079;DHT22;528;47.872;11.478;2022-07-29T09:18:01;25.40;95.70
1079;DHT22;528;47.872;11.478;2022-07-29T09:20:29;25.40;95.50
1079;DHT22;528;47.872;11.478;2022-07-29T09:23:35;25.30;95.20
1079;DHT22;528;47.872;11.478;2022-07-29T09:26:05;25.30;95.40
1079;DHT22;528;47.872;11.478;2022-07-29T09:28:32;25.20;95.20
1079;DHT22;528;47.872;11.478;2022-07-29T09:30:59;25.10;95.30
1079;DHT22;528;47.872;11.478;2022-07-29T09:33:32;25.10;95.40
1079;DHT22;528;47.872;11.478;2022-07-29T09:36:46;25.10;95.50
1079;DHT22;528;47.872;11.478;2022-07-29T09:46:21;25.10;96.20
1079;DHT22;528;47.872;11.478;2022-07-29T09:49:13;25.10;96.40
1079;DHT22;528;47.872;11.478;2022-07-29T09:51:41;25.10;97.20
1079;DHT22;528;47.872;11.478;2022-07-29T09:54:24;25.10;96.10
1079;DHT22;528;47.872;11.478;2022-07-29T09:57:00;25.10;95.80
1079;DHT22;528;47.872;11.478;2022-07-29T09:59:40;25.10;96.30
1079;DHT22;528;47.872;11.478;2022-07-29T10:05:38;25.00;96.50
1079;DHT22;528;47.872;11.478;2022-07-29T10:08:08;25.00;96.10
1079;DHT22;528;47.872;11.478;2022-07-29T10:10:37;25.00;96.60
1079;DHT22;528;47.872;11.478;2022-07-29T10:13:08;25.00;96.60
1079;DHT22;528;47.872;11.478;2022-07-29T10:15:44;24.90;97.20
1079;DHT22;528;47.872;11.478;2022-07-29T10:18:18;24.90;96.70
1079;DHT22;528;47.872;11.478;2022-07-29T10:21:05;24.90;97.10
1079;DHT22;528;47.872;11.478;2022-07-29T10:23:38;25.00;97.50
1079;DHT22;528;47.872;11.478;2022-07-29T10:26:12;24.90;97.20
1079;DHT22;528;47.872;11.478;2022-07-29T10:28:46;24.90;97.60
1079;DHT22;528;47.872;11.478;2022-07-29T10:58:15;25.40;97.80
1079;DHT22;528;47.872;11.478;2022-07-29T11:00:50;25.50;96.00
1079;DHT22;528;47.872;11.478;2022-07-29T11:03:51;25.70;97.40
1079;DHT22;528;47.872;11.478;2022-07-29T11:06:21;25.70;97.80
1079;DHT22;528;47.872;11.478;2022-07-29T11:09:18;25.70;97.00
1079;DHT22;528;47.872;11.478;2022-07-29T11:11:48;25.80;97.70
1079;DHT22;528;47.872;11.478;2022-07-29T11:14:21;25.90;96.80
1079;DHT22;528;47.872;11.478;2022-07-29T11:17:18;25.90;96.60
1079;DHT22;528;47.872;11.478;2022-07-29T11:19:45;25.90;96.30
1079;DHT22;528;47.872;11.478;2022-07-29T11:22:32;25.90;96.60
1079;DHT22;528;47.872;11.478;2022-07-29T11:25:16;25.90;97.50
1079;DHT22;528;47.872;11.478;2022-07-29T11:27:46;25.90;97.60
1079;DHT22;528;47.872;11.478;2022-07-29T11:30:19;25.80;94.40
1079;DHT22;528;47.872;11.478;2022-07-29T11:32:50;25.80;94.80
1079;DHT22;528;47.872;11.478;2022-07-29T11:35:21;25.80;95.80
1079;DHT22;528;47.872;11.478;2022-07-29T11:40:42;25.80;94.20
1079;DHT22;528;47.872;11.478;2022-07-29T11:43:47;25.80;95.50
1079;DHT22;528;47.872;11.478;2022-07-29T11:46:52;25.90;96.40
1079;DHT22;528;47.872;11.478;2022-07-29T11:49:23;25.90;95.00
1079;DHT22;528;47.872;11.478;2022-07-29T11:52:02;25.90;95.20
1079;DHT22;528;47.872;11.478;2022-07-29T11:54:52;25.90;95.90
1079;DHT22;528;47.872;11.478;2022-07-29T11:57:30;26.00;95.30
1079;DHT22;528;47.872;11.478;2022-07-29T12:00:09;26.00;95.80
1079;DHT22;528;47.872;11.478;2022-07-29T12:02:45;26.00;95.30
1079;DHT22;528;47.872;11.478;2022-07-29T12:05:16;26.00;94.70
1079;DHT22;528;47.872;11.478;2022-07-29T12:07:47;26.00;94.60
1079;DHT22;528;47.872;11.478;2022-07-29T12:10:15;26.00;94.70
1079;DHT22;528;47.872;11.478;2022-07-29T12:12:51;26.00;95.50
1079;DHT22;528;47.872;11.478;2022-07-29T12:15:19;26.00;95.20
1079;DHT22;528;47.872;11.478;2022-07-29T12:17:48;26.10;96.30
1079;DHT22;528;47.872;11.478;2022-07-29T12:20:23;26.10;96.20
1079;DHT22;528;47.872;11.478;2022-07-29T12:22:51;26.10;95.10
1079;DHT22;528;47.872;11.478;2022-07-29T12:25:20;26.20;95.60
1079;DHT22;528;47.872;11.478;2022-07-29T12:28:03;26.20;95.60
1079;DHT22;528;47.872;11.478;2022-07-29T12:30:43;26.10;95.00
1079;DHT22;528;47.872;11.478;2022-07-29T12:33:20;26.10;95.80
1079;DHT22;528;47.872;11.478;2022-07-29T12:35:57;26.10;95.50
1079;DHT22;528;47.872;11.478;2022-07-29T12:38:29;26.00;95.70
1079;DHT22;528;47.872;11.478;2022-07-29T12:41:22;26.00;94.70
1079;DHT22;528;47.872;11.478;2022-07-29T12:43:53;26.00;94.90
1079;DHT22;528;47.872;11.478;2022-07-29T12:46:26;26.10;94.60
1079;DHT22;528;47.872;11.478;2022-07-29T12:48:58;26.10;94.40
1079;DHT22;528;47.872;11.478;2022-07-29T12:51:29;26.00;93.80
1079;DHT22;528;47.872;11.478;2022-07-29T12:54:05;26.00;93.30
1079;DHT22;528;47.872;11.478;2022-07-29T12:56:36;25.90;93.80
1079;DHT22;528;47.872;11.478;2022-07-29T12:59:14;25.80;93.40
1079;DHT22;528;47.872;11.478;2022-07-29T13:01:42;25.70;93.60
1079;DHT22;528;47.872;11.478;2022-07-29T13:04:24;25.70;94.50
1079;DHT22;528;47.872;11.478;2022-07-29T13:06:58;25.80;94.40
1079;DHT22;528;47.872;11.478;2022-07-29T13:09:37;25.80;94.60
1079;DHT22;528;47.872;11.478;2022-07-29T13:12:07;25.80;96.20
1079;DHT22;528;47.872;11.478;2022-07-29T13:14:37;25.80;96.20
1079;DHT22;528;47.872;11.478;2022-07-29T13:17:08;25.80;95.50
1079;DHT22;528;47.872;11.478;2022-07-29T13:19:39;25.80;96.10
1079;DHT22;528;47.872;11.478;2022-07-29T13:22:07;25.80;95.90
1079;DHT22;528;47.872;11.478;2022-07-29T13:24:46;25.90;96.50
1079;DHT22;528;47.872;11.478;2022-07-29T13:27:14;25.90;96.10
1079;DHT22;528;47.872;11.478;2022-07-29T13:29:42;26.00;97.20
1079;DHT22;528;47.872;11.478;2022-07-29T13:32:11;26.00;96.60
1079;DHT22;528;47.872;11.478;2022-07-29T13:37:17;26.20;95.80
1079;DHT22;528;47.872;11.478;2022-07-29T13:39:58;26.30;95.30
1079;DHT22;528;47.872;11.478;2022-07-29T13:42:39;26.30;94.10
1079;DHT22;528;47.872;11.478;2022-07-29T13:45:25;26.40;92.90
1079;DHT22;528;47.872;11.478;2022-07-29T13:47:59;26.40;93.90
1079;DHT22;528;47.872;11.478;2022-07-29T13:50:30;26.50;94.10
1079;DHT22;528;47.872;11.478;2022-07-29T13:55:51;26.60;93.30
1079;DHT22;528;47.872;11.478;2022-07-29T13:58:36;26.60;92.80
1079;DHT22;528;47.872;11.478;2022-07-29T14:01:21;26.50;94.00
1079;DHT22;528;47.872;11.478;2022-07-29T14:09:11;26.60;93.90
1079;DHT22;528;47.872;11.478;2022-07-29T14:11:42;26.60;93.60
1079;DHT22;528;47.872;11.478;2022-07-29T14:14:25;26.60;93.90
1079;DHT22;528;47.872;11.478;2022-07-29T15:30:16;25.90;95.60
1079;DHT22;528;47.872;11.478;2022-07-29T17:11:09;21.50;99.90
1079;DHT22;528;47.872;11.478;2022-07-29T17:13:38;21.30;99.90
1079;DHT22;528;47.872;11.478;2022-07-29T17:21:25;21.10;99.90
1079;DHT22;528;47.872;11.478;2022-07-29T20:21:32;18.70;99.90
1079;DHT22;528;47.872;11.478;2022-07-29T20:26:42;18.50;99.90
1079;DHT22;528;47.872;11.478;2022-07-29T20:31:48;18.50;99.90
1079;DHT22;528;47.872;11.478;2022-07-29T20:34:16;18.50;99.90
1079;DHT22;528;47.872;11.478;2022-07-29T20:36:49;18.50;99.90
1079;DHT22;528;47.872;11.478;2022-07-29T20:39:24;18.50;99.90
1079;DHT22;528;47.872;11.478;2022-07-29T20:41:53;18.50;99.90
1079;DHT22;528;47.872;11.478;2022-07-29T20:44:21;18.60;99.90
1079;DHT22;528;47.872;11.478;2022-07-29T20:52:32;18.60;99.90
1079;DHT22;528;47.872;11.478;2022-07-29T21:00:25;18.70;99.90
1079;DHT22;528;47.872;11.478;2022-07-29T21:02:53;18.70;99.90
1079;DHT22;528;47.872;11.478;2022-07-29T21:05:22;18.80;99.90
1079;DHT22;528;47.872;11.478;2022-07-29T21:07:58;18.80;99.90
1079;DHT22;528;47.872;11.478;2022-07-29T21:10:27;18.80;99.90
1079;DHT22;528;47.872;11.478;2022-07-29T21:12:56;18.80;99.90
1079;DHT22;528;47.872;11.478;2022-07-29T21:15:27;18.80;99.90
1079;DHT22;528;47.872;11.478;2022-07-29T21:17:55;18.80;99.90
1079;DHT22;528;47.872;11.478;2022-07-29T21:20:28;18.80;99.90
1079;DHT22;528;47.872;11.478;2022-07-29T21:22:57;18.80;99.90
1079;DHT22;528;47.872;11.478;2022-07-29T21:25:33;18.60;99.90
1079;DHT22;528;47.872;11.478;2022-07-29T21:28:33;18.70;99.90
1079;DHT22;528;47.872;11.478;2022-07-29T21:31:26;18.70;99.90
1079;DHT22;528;47.872;11.478;2022-07-29T21:34:13;18.80;99.90
1079;DHT22;528;47.872;11.478;2022-07-29T21:37:00;18.80;99.90
1079;DHT22;528;47.872;11.478;2022-07-29T21:39:40;18.80;99.90
1079;DHT22;528;47.872;11.478;2022-07-29T21:42:31;18.90;99.90
1079;DHT22;528;47.872;11.478;2022-07-29T21:45:24;18.90;99.90
1079;DHT22;528;47.872;11.478;2022-07-29T21:51:25;18.80;99.90
1079;DHT22;528;47.872;11.478;2022-07-29T21:54:22;18.80;99.90
1079;DHT22;528;47.872;11.478;2022-07-29T21:57:07;18.80;99.90
1079;DHT22;528;47.872;11.478;2022-07-29T21:59:42;18.90;99.90
1079;DHT22;528;47.872;11.478;2022-07-29T22:02:27;18.80;99.90
1079;DHT22;528;47.872;11.478;2022-07-29T22:05:20;18.80;99.90
1079;DHT22;528;47.872;11.478;2022-07-29T22:08:15;18.70;99.90
1079;DHT22;528;47.872;11.478;2022-07-29T22:11:19;18.70;99.90
1079;DHT22;528;47.872;11.478;2022-07-29T22:17:02;18.80;99.90
1079;DHT22;528;47.872;11.478;2022-07-29T22:20:11;18.70;99.90
1079;DHT22;528;47.872;11.478;2022-07-29T22:30:04;18.90;99.90
1079;DHT22;528;47.872;11.478;2022-07-29T22:39:21;18.80;99.90
1079;DHT22;528;47.872;11.478;2022-07-29T22:42:08;18.80;99.90
1079;DHT22;528;47.872;11.478;2022-07-29T22:44:43;18.80;99.90
1079;DHT22;528;47.872;11.478;2022-07-29T22:47:11;18.70;99.90
1079;DHT22;528;47.872;11.478;2022-07-29T22:49:39;18.70;99.90
1079;DHT22;528;47.872;11.478;2022-07-29T22:52:11;18.80;99.90
1079;DHT22;528;47.872;11.478;2022-07-29T22:54:44;18.70;99.90
1079;DHT22;528;47.872;11.478;2022-07-29T22:57:14;18.80;99.90
1079;DHT22;528;47.872;11.478;2022-07-29T22:59:42;18.80;99.90
1079;DHT22;528;47.872;11.478;2022-07-29T23:02:09;18.80;99.90
1079;DHT22;528;47.872;11.478;2022-07-29T23:04:41;18.80;99.90
1079;DHT22;528;47.872;11.478;2022-07-29T23:07:14;18.70;99.90
1079;DHT22;528;47.872;11.478;2022-07-29T23:09:46;18.70;99.90
1079;DHT22;528;47.872;11.478;2022-07-29T23:12:14;18.70;99.90
1079;DHT22;528;47.872;11.478;2022-07-29T23:14:44;18.70;99.90
1079;DHT22;528;47.872;11.478;2022-07-29T23:17:14;18.70;99.90
1079;DHT22;528;47.872;11.478;2022-07-29T23:19:43;18.60;99.90
1079;DHT22;528;47.872;11.478;2022-07-29T23:22:11;18.60;99.90
1079;DHT22;528;47.872;11.478;2022-07-29T23:24:42;18.60;99.90
1079;DHT22;528;47.872;11.478;2022-07-29T23:27:23;18.60;99.90
1079;DHT22;528;47.872;11.478;2022-07-29T23:29:58;18.60;99.90
1079;DHT22;528;47.872;11.478;2022-07-29T23:32:30;18.50;99.90
1079;DHT22;528;47.872;11.478;2022-07-29T23:35:01;18.60;99.90
1079;DHT22;528;47.872;11.478;2022-07-29T23:37:30;18.60;99.90
1079;DHT22;528;47.872;11.478;2022-07-29T23:39:59;18.60;99.90
1079;DHT22;528;47.872;11.478;2022-07-29T23:42:33;18.60;99.90
1079;DHT22;528;47.872;11.478;2022-07-29T23:45:01;18.60;99.90
1079;DHT22;528;47.872;11.478;2022-07-29T23:47:29;18.60;99.90
1079;DHT22;528;47.872;11.478;2022-07-29T23:50:03;18.60;99.90
1079;DHT22;528;47.872;11.478;2022-07-29T23:52:30;18.60;99.90
1079;DHT22;528;47.872;11.478;2022-07-29T23:55:01;18.60;99.90
1079;DHT22;528;47.872;11.478;2022-07-29T23:57:35;18.60;99.90
